Time;durP1;ratioP1;P1;durP2;ratioP2;P2;SDS_P1;SDS_P2;PMS_P1;PMS_P2;Temp;Humidity;BMP_temperature;BMP_pressure;BME280_temperature;BME280_humidity;BME280_pressure;Samples;Min_cycle;Max_cycle;Signal;HPM_P1;HPM_P2
2023/08/06 00:00:19;;;;;;;6.80;4.28;;;14.60;99.90;;;;;;5004040;28;20041;-70
2023/08/06 00:02:45;;;;;;;8.40;4.72;;;14.60;99.90;;;;;;5008336;28;20134;-70
2023/08/06 00:05:11;;;;;;;8.43;4.72;;;14.60;99.90;;;;;;5010966;28;20048;-70
2023/08/06 00:07:36;;;;;;;6.75;4.78;;;14.60;99.90;;;;;;5025454;28;20080;-70
2023/08/06 00:10:02;;;;;;;7.80;5.20;;;14.60;99.90;;;;;;5008796;28;20188;-69
2023/08/06 00:12:28;;;;;;;11.18;5.63;;;14.60;99.90;;;;;;5024391;28;20057;-69
2023/08/06 00:14:54;;;;;;;9.57;4.95;;;14.60;99.90;;;;;;5007647;28;20045;-69
2023/08/06 00:17:19;;;;;;;8.93;5.72;;;14.60;99.90;;;;;;5008492;28;20049;-70
2023/08/06 00:19:45;;;;;;;8.77;5.57;;;14.60;99.90;;;;;;5023224;28;20037;-70
2023/08/06 00:22:11;;;;;;;8.65;5.40;;;14.60;99.90;;;;;;5026398;28;20053;-70
2023/08/06 00:24:36;;;;;;;8.07;5.30;;;14.60;99.90;;;;;;5005523;28;20045;-70
2023/08/06 00:27:02;;;;;;;7.55;4.85;;;14.70;99.90;;;;;;4997324;28;20051;-69
2023/08/06 00:29:28;;;;;;;8.82;5.72;;;14.70;99.90;;;;;;5005898;28;20505;-70
2023/08/06 00:31:54;;;;;;;8.20;5.45;;;14.70;99.90;;;;;;5005665;28;20045;-69
2023/08/06 00:34:20;;;;;;;8.48;5.22;;;14.60;99.90;;;;;;5023505;28;20033;-69
2023/08/06 00:36:46;;;;;;;7.78;5.43;;;14.70;99.90;;;;;;5005412;28;20045;-69
2023/08/06 00:39:12;;;;;;;9.95;5.40;;;14.70;99.90;;;;;;4998646;28;20061;-70
2023/08/06 00:41:37;;;;;;;11.82;6.63;;;14.60;99.90;;;;;;5016779;28;20500;-69
2023/08/06 00:44:03;;;;;;;8.57;5.55;;;14.70;99.90;;;;;;5019005;28;20037;-70
2023/08/06 00:46:30;;;;;;;11.57;6.50;;;14.70;99.90;;;;;;5005244;28;20114;-69
2023/08/06 00:48:56;;;;;;;10.30;6.45;;;14.70;99.90;;;;;;5020832;28;20038;-69
2023/08/06 00:51:23;;;;;;;10.02;6.20;;;14.70;99.90;;;;;;5007853;28;20140;-70
2023/08/06 00:53:50;;;;;;;11.38;6.10;;;14.70;99.90;;;;;;5014132;28;20480;-69
2023/08/06 00:56:15;;;;;;;11.82;6.65;;;14.70;99.90;;;;;;5007487;28;20049;-70
2023/08/06 00:58:42;;;;;;;12.18;7.13;;;14.70;99.90;;;;;;5008627;28;20052;-70
2023/08/06 01:01:07;;;;;;;11.30;6.68;;;14.70;99.90;;;;;;5007307;28;20053;-70
2023/08/06 01:03:33;;;;;;;10.75;7.15;;;14.70;99.90;;;;;;4991024;28;20045;-70
2023/08/06 01:05:59;;;;;;;14.02;8.18;;;14.70;99.90;;;;;;4986089;28;20053;-70
2023/08/06 01:08:48;;;;;;;13.27;7.70;;;14.70;99.90;;;;;;5011944;28;20214;-70
2023/08/06 01:11:43;;;;;;;13.85;8.70;;;14.70;99.90;;;;;;5006743;28;20140;-70
2023/08/06 01:14:21;;;;;;;14.45;8.48;;;14.70;99.90;;;;;;4997739;28;20175;-70
2023/08/06 01:16:48;;;;;;;14.05;8.63;;;14.70;99.90;;;;;;5025460;28;20518;-70
2023/08/06 01:19:18;;;;;;;13.57;8.63;;;14.70;99.90;;;;;;5019147;28;20084;-70
2023/08/06 01:21:44;;;;;;;15.13;9.10;;;14.70;99.90;;;;;;5008141;28;20042;-70
2023/08/06 01:24:10;;;;;;;11.77;7.18;;;14.70;99.90;;;;;;4999316;28;20041;-70
2023/08/06 01:26:43;;;;;;;13.45;7.55;;;14.70;99.90;;;;;;5007259;28;20269;-70
2023/08/06 01:29:20;;;;;;;13.65;8.00;;;14.70;99.90;;;;;;5007549;28;20037;-70
2023/08/06 01:31:48;;;;;;;13.93;8.23;;;14.70;99.90;;;;;;5018767;28;20037;-70
2023/08/06 01:34:20;;;;;;;11.90;7.22;;;14.70;99.90;;;;;;5008065;28;20080;-70
2023/08/06 01:36:46;;;;;;;12.93;8.00;;;14.70;99.90;;;;;;5004719;28;20692;-70
2023/08/06 01:39:12;;;;;;;11.93;7.78;;;14.70;99.90;;;;;;5020427;28;20080;-70
2023/08/06 01:41:37;;;;;;;13.63;8.57;;;14.70;99.90;;;;;;4998433;28;20072;-70
2023/08/06 01:44:03;;;;;;;11.88;7.18;;;14.70;99.90;;;;;;5005090;28;20143;-70
2023/08/06 01:46:29;;;;;;;13.30;7.53;;;14.70;99.90;;;;;;5009300;28;20053;-70
2023/08/06 01:48:54;;;;;;;14.43;7.40;;;14.70;99.90;;;;;;5023561;28;20048;-70
2023/08/06 01:51:20;;;;;;;13.30;7.82;;;14.70;99.90;;;;;;5002181;28;20055;-70
2023/08/06 01:53:46;;;;;;;11.93;7.55;;;14.80;99.90;;;;;;5023925;28;20037;-70
2023/08/06 01:56:11;;;;;;;11.82;7.50;;;14.80;99.90;;;;;;5025106;28;20529;-70
2023/08/06 01:58:37;;;;;;;12.85;7.70;;;14.80;99.90;;;;;;4984780;28;20114;-70
2023/08/06 02:01:03;;;;;;;11.65;7.40;;;14.70;99.90;;;;;;4999252;28;20353;-70
2023/08/06 02:03:29;;;;;;;10.50;6.32;;;14.80;99.90;;;;;;5021858;28;20562;-70
2023/08/06 02:05:55;;;;;;;12.57;6.53;;;14.80;99.90;;;;;;5011817;28;20129;-70
2023/08/06 02:08:20;;;;;;;9.00;6.05;;;14.80;99.90;;;;;;5006236;28;20125;-70
2023/08/06 02:10:46;;;;;;;13.90;6.63;;;14.80;99.90;;;;;;5005214;28;20463;-70
2023/08/06 02:13:12;;;;;;;10.10;6.45;;;14.80;99.90;;;;;;4999753;28;20120;-70
2023/08/06 02:15:47;;;;;;;10.55;6.60;;;14.80;99.90;;;;;;5006389;28;20101;-70
2023/08/06 02:18:13;;;;;;;12.20;6.32;;;14.80;99.90;;;;;;5006794;28;20088;-70
2023/08/06 02:20:38;;;;;;;11.52;6.80;;;14.80;99.90;;;;;;5025872;28;20073;-70
2023/08/06 02:23:04;;;;;;;10.52;6.65;;;14.80;99.90;;;;;;5007679;28;20108;-70
2023/08/06 02:25:30;;;;;;;9.40;6.05;;;14.80;99.90;;;;;;5025324;28;20049;-69
2023/08/06 02:27:55;;;;;;;11.23;6.40;;;14.70;99.90;;;;;;5007699;28;20058;-70
2023/08/06 02:30:21;;;;;;;10.07;6.50;;;14.70;99.90;;;;;;5009846;28;20114;-70
2023/08/06 02:32:47;;;;;;;9.10;5.88;;;14.70;99.90;;;;;;5024616;28;20111;-69
2023/08/06 02:35:12;;;;;;;9.23;5.75;;;14.70;99.90;;;;;;5006377;28;20172;-70
2023/08/06 02:37:38;;;;;;;9.23;5.82;;;14.70;99.90;;;;;;5004156;28;20133;-70
2023/08/06 02:40:04;;;;;;;8.70;5.80;;;14.70;99.90;;;;;;5007890;28;20048;-70
2023/08/06 02:42:30;;;;;;;9.02;5.18;;;14.70;99.90;;;;;;5005247;28;20444;-70
2023/08/06 02:44:56;;;;;;;8.70;5.82;;;14.70;99.90;;;;;;4993052;28;20476;-70
2023/08/06 02:47:21;;;;;;;10.60;5.97;;;14.70;99.90;;;;;;5006217;28;20211;-70
2023/08/06 02:49:47;;;;;;;10.95;6.30;;;14.70;99.90;;;;;;5008186;28;20531;-70
2023/08/06 02:52:13;;;;;;;10.52;5.47;;;14.60;99.90;;;;;;5028736;28;20503;-70
2023/08/06 02:54:38;;;;;;;9.27;5.82;;;14.70;99.90;;;;;;5013345;28;20053;-70
2023/08/06 02:57:05;;;;;;;9.27;6.00;;;14.70;99.90;;;;;;4991762;28;20124;-70
2023/08/06 02:59:31;;;;;;;10.90;6.30;;;14.60;99.90;;;;;;5012372;28;20286;-70
2023/08/06 03:01:57;;;;;;;8.55;5.63;;;14.60;99.90;;;;;;5032543;28;20033;-70
2023/08/06 03:04:22;;;;;;;11.35;5.75;;;14.60;99.90;;;;;;5016728;28;20045;-70
2023/08/06 03:06:50;;;;;;;9.05;5.53;;;14.60;99.90;;;;;;5009643;28;20046;-69
2023/08/06 03:09:16;;;;;;;8.55;5.90;;;14.60;99.90;;;;;;5007136;22;20052;-68
2023/08/06 03:11:42;;;;;;;10.88;6.55;;;14.60;99.90;;;;;;5018078;28;20049;-69
2023/08/06 03:14:08;;;;;;;9.70;5.22;;;14.60;99.90;;;;;;5024913;28;20175;-68
2023/08/06 03:16:34;;;;;;;8.50;5.40;;;14.60;99.90;;;;;;5025236;28;20045;-68
2023/08/06 03:18:59;;;;;;;10.07;6.22;;;14.60;99.90;;;;;;5028871;28;20051;-68
2023/08/06 03:21:25;;;;;;;8.30;4.93;;;14.60;99.90;;;;;;5027578;28;20331;-68
2023/08/06 03:23:51;;;;;;;10.30;6.13;;;14.60;99.90;;;;;;5026614;28;20681;-68
2023/08/06 03:26:16;;;;;;;10.48;6.00;;;14.60;99.90;;;;;;5030674;28;20042;-68
2023/08/06 03:28:42;;;;;;;8.50;5.57;;;14.60;99.90;;;;;;5027443;28;20077;-68
2023/08/06 03:31:08;;;;;;;8.90;5.95;;;14.60;99.90;;;;;;5027484;28;20294;-68
2023/08/06 03:33:33;;;;;;;8.27;5.35;;;14.60;99.90;;;;;;5029418;28;20045;-68
2023/08/06 03:35:59;;;;;;;9.88;5.75;;;14.60;99.90;;;;;;5030435;28;20039;-69
2023/08/06 03:38:25;;;;;;;8.85;5.78;;;14.60;99.90;;;;;;5030768;28;20080;-68
2023/08/06 03:40:51;;;;;;;8.80;5.45;;;14.60;99.90;;;;;;5028623;28;20407;-68
2023/08/06 03:43:17;;;;;;;9.43;5.88;;;14.60;99.90;;;;;;5020695;28;20494;-68
2023/08/06 03:45:43;;;;;;;12.10;5.43;;;14.60;99.90;;;;;;5026746;28;20117;-68
2023/08/06 03:48:09;;;;;;;8.65;5.85;;;14.60;99.90;;;;;;5027066;28;20052;-68
2023/08/06 03:50:35;;;;;;;9.48;6.30;;;14.60;99.90;;;;;;5011550;28;20060;-68
2023/08/06 03:53:01;;;;;;;;;;;14.60;99.90;;;;;;5029397;28;20045;-68
2023/08/06 03:55:26;;;;;;;10.38;5.85;;;14.60;99.90;;;;;;5028185;28;19924;-69
2023/08/06 03:57:52;;;;;;;9.40;5.93;;;14.60;99.90;;;;;;5028831;28;20049;-68
2023/08/06 04:00:18;;;;;;;10.18;6.68;;;14.60;99.90;;;;;;5031943;28;20037;-68
2023/08/06 04:02:44;;;;;;;12.10;7.03;;;14.60;99.90;;;;;;5026590;28;20096;-68
2023/08/06 04:05:09;;;;;;;11.13;6.57;;;14.60;99.90;;;;;;5026607;28;20049;-68
2023/08/06 04:07:35;;;;;;;9.10;5.88;;;14.60;99.90;;;;;;5027801;28;20446;-69
2023/08/06 04:10:03;;;;;;;10.20;6.90;;;14.60;99.90;;;;;;5028104;28;20042;-69
2023/08/06 04:12:30;;;;;;;10.40;5.65;;;14.60;99.90;;;;;;5030636;28;20487;-68
2023/08/06 04:14:58;;;;;;;9.77;6.53;;;14.60;99.90;;;;;;5027400;28;20487;-68
2023/08/06 04:17:24;;;;;;;9.43;6.20;;;14.70;99.90;;;;;;5032562;28;20069;-68
2023/08/06 04:19:54;;;;;;;10.75;6.85;;;14.60;99.90;;;;;;5027523;28;20327;-68
2023/08/06 04:22:21;;;;;;;10.80;6.97;;;14.60;99.90;;;;;;5026574;28;20046;-68
2023/08/06 04:24:47;;;;;;;8.38;5.80;;;14.60;99.90;;;;;;5030110;28;20033;-69
2023/08/06 04:27:13;;;;;;;;;;;14.60;99.90;;;;;;5024810;28;20416;-68
2023/08/06 04:29:39;;;;;;;9.30;6.03;;;14.60;99.90;;;;;;5020825;28;20024;-68
2023/08/06 04:32:07;;;;;;;9.68;6.28;;;14.60;99.90;;;;;;5024458;28;20403;-68
2023/08/06 04:34:33;;;;;;;9.90;6.40;;;14.60;99.90;;;;;;5022809;28;20069;-68
2023/08/06 04:36:59;;;;;;;11.63;6.50;;;14.60;99.90;;;;;;5027583;28;20113;-68
2023/08/06 04:39:25;;;;;;;10.88;6.50;;;14.60;99.90;;;;;;5028351;28;20515;-68
2023/08/06 04:41:51;;;;;;;10.10;6.55;;;14.70;99.90;;;;;;5023915;28;20084;-68
2023/08/06 04:44:16;;;;;;;9.57;6.53;;;14.70;99.90;;;;;;5024111;28;20041;-68
2023/08/06 04:46:42;;;;;;;12.07;6.67;;;14.70;99.90;;;;;;5022956;28;20033;-68
2023/08/06 04:49:08;;;;;;;11.30;6.90;;;14.70;99.90;;;;;;5028374;28;20267;-68
2023/08/06 04:51:33;;;;;;;10.32;6.72;;;14.70;99.90;;;;;;5010592;28;20045;-68
2023/08/06 04:53:59;;;;;;;13.18;6.55;;;14.70;99.90;;;;;;5028833;28;20034;-68
2023/08/06 04:56:25;;;;;;;11.35;6.47;;;14.70;99.90;;;;;;5027652;28;20068;-68
2023/08/06 04:58:51;;;;;;;13.80;6.57;;;14.70;99.90;;;;;;5027598;28;20064;-68
2023/08/06 05:01:17;;;;;;;11.23;6.90;;;14.70;99.90;;;;;;5020187;28;20076;-68
2023/08/06 05:03:42;;;;;;;9.57;6.35;;;14.70;99.90;;;;;;5028218;28;20069;-69
2023/08/06 05:06:08;;;;;;;11.63;7.20;;;14.70;99.90;;;;;;5022379;28;20033;-68
2023/08/06 05:08:34;;;;;;;9.77;6.32;;;14.70;99.90;;;;;;5029056;28;20340;-68
2023/08/06 05:11:00;;;;;;;11.00;7.38;;;14.70;99.90;;;;;;5027285;28;20175;-68
2023/08/06 05:13:25;;;;;;;10.10;6.45;;;14.80;99.90;;;;;;5028761;28;20030;-68
2023/08/06 05:15:53;;;;;;;9.02;6.13;;;14.80;99.90;;;;;;5025353;28;20160;-68
2023/08/06 05:18:19;;;;;;;8.07;5.70;;;14.80;99.90;;;;;;5025062;28;20103;-68
2023/08/06 05:20:44;;;;;;;11.20;6.82;;;14.80;99.90;;;;;;5026097;28;20049;-68
2023/08/06 05:23:10;;;;;;;10.90;6.63;;;14.80;99.90;;;;;;5027708;28;20052;-69
2023/08/06 05:25:36;;;;;;;13.73;7.15;;;14.90;99.90;;;;;;5027752;28;20492;-68
2023/08/06 05:28:03;;;;;;;10.57;6.65;;;14.90;99.90;;;;;;5023345;28;20045;-69
2023/08/06 05:30:28;;;;;;;;;;;14.90;99.90;;;;;;5027017;28;20045;-68
2023/08/06 05:32:55;;;;;;;9.75;6.47;;;14.90;99.90;;;;;;5027963;28;19927;-69
2023/08/06 05:35:21;;;;;;;;;;;14.90;99.90;;;;;;5026930;28;20155;-69
2023/08/06 05:37:46;;;;;;;12.75;6.03;;;14.90;99.90;;;;;;5028537;28;20196;-69
2023/08/06 05:40:12;;;;;;;9.23;6.32;;;14.90;99.90;;;;;;5026148;28;20046;-68
2023/08/06 05:42:39;;;;;;;9.65;6.43;;;15.00;99.90;;;;;;5027081;28;20041;-69
2023/08/06 05:45:05;;;;;;;11.80;5.75;;;15.00;99.90;;;;;;5026099;28;20107;-68
2023/08/06 05:47:30;;;;;;;10.27;6.70;;;15.00;99.90;;;;;;5023006;28;20064;-68
2023/08/06 05:49:56;;;;;;;9.32;5.80;;;15.00;99.90;;;;;;5024201;28;20037;-69
2023/08/06 05:52:22;;;;;;;10.07;6.43;;;15.00;99.90;;;;;;5026115;28;20044;-68
2023/08/06 05:54:47;;;;;;;13.63;7.20;;;15.00;99.90;;;;;;5025502;28;20038;-68
2023/08/06 05:57:13;;;;;;;9.32;6.30;;;15.00;99.90;;;;;;5024727;28;20477;-68
2023/08/06 05:59:40;;;;;;;10.60;5.68;;;15.10;99.90;;;;;;5027685;28;20049;-68
2023/08/06 06:02:06;;;;;;;10.57;7.03;;;15.10;99.90;;;;;;5026643;28;20037;-69
2023/08/06 06:04:31;;;;;;;8.90;6.32;;;15.10;99.90;;;;;;5021084;28;20041;-69
2023/08/06 06:06:57;;;;;;;10.20;6.55;;;15.10;99.90;;;;;;5025902;28;20041;-69
2023/08/06 06:09:23;;;;;;;11.45;6.78;;;15.10;99.90;;;;;;5028063;28;20069;-69
2023/08/06 06:11:50;;;;;;;10.98;7.00;;;15.10;99.90;;;;;;5028090;28;20046;-69
2023/08/06 06:14:19;;;;;;;10.05;6.90;;;15.10;99.90;;;;;;5028515;28;20567;-68
2023/08/06 06:16:45;;;;;;;12.65;7.28;;;15.10;99.90;;;;;;5024883;28;20068;-69
2023/08/06 06:19:11;;;;;;;;;;;15.10;99.90;;;;;;5008729;28;20042;-68
2023/08/06 06:21:38;;;;;;;11.38;6.07;;;15.10;99.90;;;;;;5022171;28;19921;-69
2023/08/06 06:24:05;;;;;;;10.80;6.55;;;15.10;99.90;;;;;;5024532;28;20080;-68
2023/08/06 06:26:31;;;;;;;10.10;6.68;;;15.10;99.90;;;;;;5026762;28;20073;-68
2023/08/06 06:28:58;;;;;;;9.75;6.28;;;15.20;99.90;;;;;;5026631;28;20462;-69
2023/08/06 06:31:23;;;;;;;10.20;6.75;;;15.10;99.90;;;;;;5021240;28;20041;-68
2023/08/06 06:33:49;;;;;;;10.45;6.03;;;15.20;99.90;;;;;;5027717;28;20080;-69
2023/08/06 06:36:15;;;;;;;10.23;6.97;;;15.20;99.90;;;;;;5033050;28;20052;-69
2023/08/06 06:38:41;;;;;;;9.52;6.82;;;15.20;99.90;;;;;;5035886;28;20529;-69
2023/08/06 06:41:06;;;;;;;8.52;5.90;;;15.30;99.90;;;;;;5029330;28;20677;-69
2023/08/06 06:43:32;;;;;;;14.68;6.32;;;15.30;99.90;;;;;;5033494;28;20045;-69
2023/08/06 06:46:01;;;;;;;11.18;5.60;;;15.40;99.90;;;;;;5030181;28;20391;-69
2023/08/06 06:48:32;;;;;;;9.93;6.53;;;15.40;99.90;;;;;;5031265;28;20049;-68
2023/08/06 06:50:58;;;;;;;9.65;6.20;;;15.50;99.90;;;;;;5032181;28;20106;-69
2023/08/06 06:53:27;;;;;;;9.85;5.93;;;15.60;99.90;;;;;;5030392;28;20041;-69
2023/08/06 06:56:00;;;;;;;9.15;5.95;;;15.60;99.90;;;;;;5030428;28;20045;-69
2023/08/06 06:58:26;;;;;;;10.45;6.40;;;15.70;99.90;;;;;;5033179;28;20041;-69
2023/08/06 07:00:52;;;;;;;8.73;5.13;;;15.80;99.90;;;;;;5030363;28;20078;-69
2023/08/06 07:03:19;;;;;;;9.43;5.70;;;15.80;99.90;;;;;;5027839;28;20046;-69
2023/08/06 07:05:45;;;;;;;8.18;5.68;;;15.90;99.90;;;;;;5028215;28;20045;-70
2023/08/06 07:08:11;;;;;;;11.90;5.55;;;15.90;99.90;;;;;;5033788;28;20537;-69
2023/08/06 07:10:37;;;;;;;8.52;5.40;;;15.90;99.90;;;;;;5030741;28;20063;-69
2023/08/06 07:13:03;;;;;;;10.20;5.80;;;16.00;99.90;;;;;;5033324;28;20128;-69
2023/08/06 07:15:29;;;;;;;10.77;6.13;;;16.00;99.90;;;;;;5031876;28;20129;-69
2023/08/06 07:17:54;;;;;;;8.13;5.65;;;16.10;99.90;;;;;;5032771;28;20411;-69
2023/08/06 07:20:20;;;;;;;7.82;4.72;;;16.10;99.90;;;;;;5028807;28;20049;-69
2023/08/06 07:22:46;;;;;;;9.13;5.00;;;16.20;99.90;;;;;;5032728;28;20448;-69
2023/08/06 07:25:11;;;;;;;8.15;5.30;;;16.20;99.90;;;;;;5009964;28;20049;-69
2023/08/06 07:27:37;;;;;;;8.80;5.70;;;16.20;99.90;;;;;;5035686;28;20053;-69
2023/08/06 07:30:05;;;;;;;8.15;5.45;;;16.30;99.90;;;;;;5027902;28;20574;-70
2023/08/06 07:32:31;;;;;;;9.15;5.53;;;16.30;99.90;;;;;;5034053;28;20042;-70
2023/08/06 07:35:00;;;;;;;8.02;5.18;;;16.40;99.90;;;;;;5028886;28;20052;-69
2023/08/06 07:37:28;;;;;;;8.93;4.82;;;16.40;99.90;;;;;;5033461;28;20406;-69
2023/08/06 07:39:54;;;;;;;10.18;4.78;;;16.50;99.90;;;;;;5037596;28;20487;-69
2023/08/06 07:42:20;;;;;;;8.43;5.53;;;16.50;99.90;;;;;;5033169;28;20045;-70
2023/08/06 07:44:54;;;;;;;7.43;4.60;;;16.50;99.90;;;;;;5032518;28;20073;-69
2023/08/06 07:47:20;;;;;;;7.90;5.07;;;16.50;99.90;;;;;;5031744;28;20416;-70
2023/08/06 07:49:46;;;;;;;7.82;5.10;;;16.50;99.90;;;;;;5032853;28;20101;-69
2023/08/06 07:52:11;;;;;;;9.30;5.50;;;16.50;99.90;;;;;;5032355;28;20045;-69
2023/08/06 07:54:37;;;;;;;7.97;4.70;;;16.50;99.90;;;;;;5030289;28;20526;-69
2023/08/06 07:57:03;;;;;;;8.27;5.03;;;16.60;99.90;;;;;;5031105;28;20519;-70
2023/08/06 07:59:29;;;;;;;8.18;4.70;;;16.60;99.90;;;;;;5034494;28;20368;-69
2023/08/06 08:01:54;;;;;;;7.95;5.13;;;16.70;99.90;;;;;;5031276;28;20095;-69
2023/08/06 08:04:20;;;;;;;7.03;4.88;;;16.70;99.90;;;;;;5013777;28;20120;-69
2023/08/06 08:06:46;;;;;;;;;;;16.80;99.90;;;;;;5030821;28;20069;-70
2023/08/06 08:09:13;;;;;;;6.13;4.28;;;16.80;99.90;;;;;;5027927;28;19972;-69
2023/08/06 08:11:41;;;;;;;5.88;4.05;;;16.80;99.90;;;;;;5033788;28;20038;-69
2023/08/06 08:14:07;;;;;;;7.20;4.43;;;16.90;99.90;;;;;;5025344;28;20037;-69
2023/08/06 08:16:33;;;;;;;5.78;4.50;;;17.00;99.90;;;;;;5029871;28;20589;-69
2023/08/06 08:18:59;;;;;;;8.48;4.85;;;17.10;99.90;;;;;;5030351;28;20399;-69
2023/08/06 08:21:24;;;;;;;5.80;3.78;;;17.10;99.90;;;;;;5030645;28;20457;-69
2023/08/06 08:23:51;;;;;;;6.55;4.25;;;17.10;99.90;;;;;;5031749;28;20054;-69
2023/08/06 08:26:16;;;;;;;5.63;3.92;;;17.20;99.90;;;;;;5031796;28;20506;-69
2023/08/06 08:28:42;;;;;;;6.30;3.63;;;17.20;99.90;;;;;;5035780;28;20044;-69
2023/08/06 08:31:09;;;;;;;4.70;3.55;;;17.30;99.90;;;;;;5031738;28;20041;-69
2023/08/06 08:33:35;;;;;;;6.22;4.18;;;17.30;99.90;;;;;;5029038;28;20049;-69
2023/08/06 08:36:01;;;;;;;5.38;4.03;;;17.40;99.90;;;;;;5037452;28;20045;-69
2023/08/06 08:38:26;;;;;;;6.35;3.90;;;17.40;99.90;;;;;;5011605;28;20360;-69
2023/08/06 08:40:54;;;;;;;4.85;3.40;;;17.50;99.90;;;;;;5031219;28;20490;-69
2023/08/06 08:43:23;;;;;;;5.50;3.30;;;17.60;99.90;;;;;;5027578;28;20111;-69
2023/08/06 08:45:58;;;;;;;6.20;3.75;;;17.60;99.90;;;;;;5027275;28;20041;-70
2023/08/06 08:48:24;;;;;;;6.35;3.80;;;17.70;99.90;;;;;;5030224;28;20041;-69
2023/08/06 08:50:50;;;;;;;5.47;3.35;;;17.70;99.90;;;;;;5029781;28;20091;-69
2023/08/06 08:53:17;;;;;;;6.32;3.85;;;17.80;99.90;;;;;;5030181;28;20046;-69
2023/08/06 08:55:46;;;;;;;10.43;3.67;;;17.80;99.90;;;;;;5029313;28;20045;-70
2023/08/06 08:58:12;;;;;;;9.77;2.97;;;17.90;99.90;;;;;;5030702;28;20041;-69
2023/08/06 09:00:39;;;;;;;;;;;17.90;99.90;;;;;;5022294;28;20037;-70
2023/08/06 09:03:06;;;;;;;4.30;2.87;;;17.90;99.90;;;;;;5035221;28;20008;-69
2023/08/06 09:05:33;;;;;;;7.25;2.65;;;18.00;99.90;;;;;;5030838;28;20694;-70
2023/08/06 09:08:05;;;;;;;4.25;2.65;;;18.00;99.90;;;;;;5029955;28;20049;-70
2023/08/06 09:10:31;;;;;;;5.75;2.78;;;18.10;99.90;;;;;;5029499;28;20132;-70
2023/08/06 09:12:58;;;;;;;;;;;18.10;99.90;;;;;;5030103;28;20041;-70
2023/08/06 09:15:28;;;;;;;6.35;2.80;;;18.10;99.90;;;;;;5030891;28;20745;-70
2023/08/06 09:17:55;;;;;;;4.63;2.88;;;18.20;99.90;;;;;;5037772;28;20053;-70
2023/08/06 09:20:21;;;;;;;4.85;2.72;;;18.30;99.90;;;;;;5033131;28;20052;-70
2023/08/06 09:22:48;;;;;;;;;;;18.30;99.90;;;;;;5030180;28;20066;-70
2023/08/06 09:25:21;;;;;;;;;;;18.30;99.90;;;;;;5049504;28;19917;-70
2023/08/06 09:27:47;;;;;;;4.85;2.33;;;18.30;99.90;;;;;;5021074;28;19928;-70
2023/08/06 09:30:37;;;;;;;4.10;2.45;;;18.40;99.90;;;;;;5033566;28;20041;-70
2023/08/06 09:33:07;;;;;;;5.07;2.60;;;18.50;99.90;;;;;;5027896;28;20041;-70
2023/08/06 09:35:33;;;;;;;6.75;2.95;;;18.50;99.90;;;;;;5029297;28;20038;-70
2023/08/06 09:38:10;;;;;;;3.95;2.50;;;18.60;99.90;;;;;;5028473;28;20474;-70
2023/08/06 09:40:36;;;;;;;;;;;18.60;99.90;;;;;;5031090;28;20128;-70
2023/08/06 09:43:02;;;;;;;4.80;3.00;;;18.70;99.90;;;;;;5028898;28;19917;-70
2023/08/06 09:45:36;;;;;;;3.85;2.50;;;18.70;99.90;;;;;;5028287;28;20037;-70
2023/08/06 09:48:06;;;;;;;3.67;2.53;;;18.80;99.90;;;;;;5028739;28;20119;-70
2023/08/06 09:50:36;;;;;;;3.53;2.30;;;18.90;99.90;;;;;;5028770;28;20092;-70
2023/08/06 09:53:03;;;;;;;3.97;2.75;;;19.00;99.90;;;;;;5028066;28;20048;-70
2023/08/06 09:55:32;;;;;;;4.40;2.22;;;19.10;99.90;;;;;;5028717;28;20176;-70
2023/08/06 09:57:59;;;;;;;3.95;2.33;;;19.20;99.90;;;;;;5028819;28;20037;-70
2023/08/06 10:00:24;;;;;;;5.22;2.80;;;19.30;99.90;;;;;;5042802;28;20064;-73
2023/08/06 10:02:55;;;;;;;4.93;2.13;;;19.40;99.90;;;;;;5041933;28;20487;-70
2023/08/06 10:05:22;;;;;;;3.55;2.00;;;19.50;99.90;;;;;;5008998;28;20129;-70
2023/08/06 10:07:50;;;;;;;2.80;1.55;;;19.50;99.90;;;;;;5033752;28;20045;-70
2023/08/06 10:10:16;;;;;;;2.70;1.52;;;19.60;99.90;;;;;;5029445;28;20465;-70
2023/08/06 10:12:49;;;;;;;3.95;1.92;;;19.60;99.90;;;;;;5025841;28;20119;-70
2023/08/06 10:15:19;;;;;;;3.80;1.92;;;19.70;99.90;;;;;;5031098;28;20144;-70
2023/08/06 10:17:47;;;;;;;2.75;1.52;;;19.80;99.90;;;;;;5017414;28;20057;-70
2023/08/06 10:20:15;;;;;;;2.88;1.90;;;19.90;99.90;;;;;;5028258;28;20048;-70
2023/08/06 10:22:45;;;;;;;4.22;1.88;;;20.00;99.90;;;;;;5012339;28;20081;-71
2023/08/06 10:25:15;;;;;;;2.95;1.70;;;20.10;99.90;;;;;;5029717;28;20033;-77
2023/08/06 10:27:54;;;;;;;3.28;1.48;;;20.10;99.90;;;;;;5015954;28;20045;-70
2023/08/06 10:30:31;;;;;;;2.72;1.55;;;20.20;99.90;;;;;;5026224;28;20065;-70
2023/08/06 10:33:03;;;;;;;;;;;20.20;99.90;;;;;;5026910;28;20034;-70
2023/08/06 10:35:53;;;;;;;3.50;1.30;;;20.20;99.90;;;;;;5028119;28;19956;-70
2023/08/06 10:38:31;;;;;;;2.33;1.48;;;20.20;99.90;;;;;;5024874;28;20053;-70
2023/08/06 10:40:57;;;;;;;1.77;1.00;;;20.10;99.90;;;;;;5026318;28;20053;-70
2023/08/06 10:43:27;;;;;;;2.25;1.40;;;20.10;99.90;;;;;;5020735;28;20047;-70
2023/08/06 10:45:54;;;;;;;2.83;1.13;;;20.10;99.90;;;;;;5024165;28;20606;-70
2023/08/06 10:48:30;;;;;;;1.70;1.08;;;20.10;99.90;;;;;;5026194;28;20111;-70
2023/08/06 10:50:56;;;;;;;2.88;1.33;;;20.20;99.90;;;;;;5026413;28;20094;-70
2023/08/06 10:53:22;;;;;;;2.83;1.40;;;20.20;99.90;;;;;;5026369;28;20512;-70
2023/08/06 10:55:48;;;;;;;2.75;1.23;;;20.30;99.90;;;;;;5028207;28;20167;-70
2023/08/06 10:58:16;;;;;;;2.53;1.25;;;20.30;99.90;;;;;;5027136;28;20042;-70
2023/08/06 11:00:44;;;;;;;1.77;1.30;;;20.30;99.90;;;;;;5029590;28;20042;-70
2023/08/06 11:03:10;;;;;;;3.00;1.30;;;20.30;99.90;;;;;;5025800;28;20033;-70
2023/08/06 11:05:49;;;;;;;1.60;0.90;;;20.40;99.90;;;;;;5006314;28;20073;-70
2023/08/06 11:08:27;;;;;;;2.42;1.60;;;20.40;99.90;;;;;;5019911;28;20073;-70
2023/08/06 11:10:53;;;;;;;3.08;1.23;;;20.40;99.90;;;;;;5027165;28;20049;-70
2023/08/06 11:13:19;;;;;;;;;;;20.50;99.90;;;;;;5029111;28;20046;-70
2023/08/06 11:15:45;;;;;;;2.87;1.20;;;20.50;99.90;;;;;;5024045;28;20363;-70
2023/08/06 11:18:11;;;;;;;3.30;1.20;;;20.50;99.90;;;;;;5026659;28;20048;-70
2023/08/06 11:20:38;;;;;;;1.90;1.25;;;20.60;99.90;;;;;;5030603;28;20041;-70
2023/08/06 11:23:04;;;;;;;2.90;1.17;;;20.60;99.90;;;;;;5034095;28;20415;-70
2023/08/06 11:25:30;;;;;;;3.90;1.50;;;20.60;99.90;;;;;;5026429;28;20049;-70
2023/08/06 11:27:56;;;;;;;3.10;1.50;;;20.70;99.90;;;;;;5029904;28;20047;-70
2023/08/06 11:30:21;;;;;;;4.20;1.00;;;20.70;99.90;;;;;;5028959;28;20490;-70
2023/08/06 11:32:48;;;;;;;5.55;1.60;;;20.60;99.90;;;;;;5031313;28;20557;-70
2023/08/06 11:35:15;;;;;;;3.55;1.77;;;20.60;99.90;;;;;;5010113;28;20053;-69
2023/08/06 11:37:45;;;;;;;3.65;1.80;;;20.60;99.90;;;;;;5019794;28;20053;-70
2023/08/06 11:40:12;;;;;;;2.85;1.48;;;20.50;99.90;;;;;;5027985;28;20041;-70
2023/08/06 11:42:38;;;;;;;2.92;1.50;;;20.50;99.90;;;;;;5022975;28;20044;-70
2023/08/06 11:45:04;;;;;;;;;;;20.50;99.90;;;;;;5023062;28;20049;-69
2023/08/06 11:47:30;;;;;;;5.18;1.85;;;20.50;99.90;;;;;;5030338;28;19932;-70
2023/08/06 11:49:56;;;;;;;2.85;1.42;;;20.50;99.90;;;;;;5030949;28;20378;-71
2023/08/06 11:52:26;;;;;;;2.20;1.35;;;20.40;99.90;;;;;;5027772;28;20037;-70
2023/08/06 11:55:13;;;;;;;2.80;1.42;;;20.30;99.90;;;;;;5022751;28;20050;-71
2023/08/06 11:57:43;;;;;;;2.40;1.58;;;20.20;99.90;;;;;;5015644;28;20223;-69
2023/08/06 12:00:13;;;;;;;2.72;1.50;;;20.10;99.90;;;;;;5022985;28;20053;-69
2023/08/06 12:02:41;;;;;;;2.15;1.25;;;20.10;99.90;;;;;;5022026;28;20056;-69
2023/08/06 12:05:11;;;;;;;4.90;1.83;;;20.00;99.90;;;;;;5021767;28;20053;-69
2023/08/06 12:07:44;;;;;;;5.63;1.70;;;20.00;99.90;;;;;;5024871;28;20110;-69
2023/08/06 12:10:10;;;;;;;3.58;1.45;;;20.00;99.90;;;;;;5027832;28;20076;-68
2023/08/06 12:12:37;;;;;;;;;;;20.00;99.90;;;;;;5029465;28;20036;-68
2023/08/06 12:15:03;;;;;;;1.70;1.10;;;19.90;99.90;;;;;;5027510;28;19921;-68
2023/08/06 12:17:29;;;;;;;2.28;1.33;;;19.90;99.90;;;;;;5024012;28;20048;-68
2023/08/06 12:19:55;;;;;;;3.60;1.42;;;19.90;99.90;;;;;;5026239;28;20057;-68
2023/08/06 12:22:23;;;;;;;3.00;1.65;;;19.90;99.90;;;;;;5022018;28;20154;-68
2023/08/06 12:24:49;;;;;;;3.03;1.52;;;20.00;99.90;;;;;;5023589;28;20121;-68
2023/08/06 12:27:18;;;;;;;2.08;1.27;;;20.10;99.90;;;;;;5016023;28;20053;-69
2023/08/06 12:29:49;;;;;;;2.88;1.40;;;20.10;99.90;;;;;;5025060;28;20037;-68
2023/08/06 12:32:15;;;;;;;5.38;1.60;;;20.30;99.90;;;;;;5024277;28;20196;-68
2023/08/06 12:34:41;;;;;;;;;;;20.40;99.90;;;;;;5026777;28;20483;-68
2023/08/06 12:37:08;;;;;;;2.35;1.25;;;20.40;99.90;;;;;;5032679;28;20034;-68
2023/08/06 12:39:34;;;;;;;3.10;1.60;;;20.50;99.90;;;;;;5031712;28;20513;-68
2023/08/06 12:42:03;;;;;;;3.42;1.48;;;20.40;99.90;;;;;;5029657;28;20052;-68
2023/08/06 12:44:29;;;;;;;3.72;1.75;;;20.30;99.90;;;;;;5027921;28;20405;-68
2023/08/06 12:46:55;;;;;;;6.55;1.70;;;20.30;99.90;;;;;;5026500;28;20095;-68